Time;durP1;ratioP1;P1;durP2;ratioP2;P2;SDS_P1;SDS_P2;PMS_P1;PMS_P2;Temp;Humidity;BMP_temperature;BMP_pressure;BME280_temperature;BME280_humidity;BME280_pressure;Samples;Min_cycle;Max_cycle;Signal;HPM_P1;HPM_P2
2021/08/06 00:00:25;;;;;;;6.53;4.45;;;;;;;12.29;91.46;99459.03;5065981;28;20079;-54
2021/08/06 00:02:52;;;;;;;6.00;4.10;;;;;;;12.18;91.61;99468.31;5071703;28;20041;-57
2021/08/06 00:05:18;;;;;;;4.88;3.92;;;;;;;12.21;91.68;99467.97;5072362;28;20100;-57
2021/08/06 00:07:44;;;;;;;4.70;2.90;;;;;;;12.18;91.84;99467.47;5066111;28;20057;-58
2021/08/06 00:10:12;;;;;;;5.10;3.85;;;;;;;12.22;91.77;99469.66;5062375;28;20080;-56
2021/08/06 00:12:39;;;;;;;5.60;3.00;;;;;;;12.24;91.55;99464.09;5071659;28;20133;-58
2021/08/06 00:15:07;;;;;;;5.18;3.40;;;;;;;12.25;91.38;99452.31;5072762;28;20076;-56
2021/08/06 00:17:33;;;;;;;3.42;3.00;;;;;;;12.23;91.35;99462.44;5072418;28;20098;-55
2021/08/06 00:19:59;;;;;;;5.43;3.92;;;;;;;12.23;91.79;99467.81;5073555;28;20122;-60
2021/08/06 00:22:26;;;;;;;4.05;3.17;;;;;;;12.25;91.78;99463.91;5072933;28;20079;-58
2021/08/06 00:24:52;;;;;;;4.05;3.38;;;;;;;12.25;91.96;99468.47;5070919;28;20150;-58
2021/08/06 00:27:20;;;;;;;3.47;2.88;;;;;;;12.23;91.71;99457.03;5068412;28;20463;-60
2021/08/06 00:29:46;;;;;;;3.53;2.95;;;;;;;12.23;92.11;99468.66;5071753;28;20040;-58
2021/08/06 00:32:12;;;;;;;4.70;3.47;;;;;;;12.22;92.62;99463.44;5071470;28;20044;-60
2021/08/06 00:34:39;;;;;;;5.00;3.60;;;;;;;12.24;92.09;99459.56;5071871;28;20540;-61
2021/08/06 00:37:05;;;;;;;4.43;3.35;;;;;;;12.27;92.31;99461.06;5069225;28;20076;-59
2021/08/06 00:39:31;;;;;;;4.43;3.45;;;;;;;12.31;92.25;99459.69;5072290;28;20102;-55
2021/08/06 00:41:58;;;;;;;6.78;4.20;;;;;;;12.34;92.27;99451.28;5068651;28;20044;-55
2021/08/06 00:44:25;;;;;;;5.05;3.33;;;;;;;12.40;92.04;99457.81;5069235;28;20538;-57
2021/08/06 00:46:52;;;;;;;4.95;3.58;;;;;;;12.39;91.69;99456.97;5066209;28;20056;-56
2021/08/06 00:49:19;;;;;;;8.05;3.72;;;;;;;12.34;91.66;99451.28;5070274;28;20052;-58
2021/08/06 00:51:45;;;;;;;3.83;3.13;;;;;;;12.30;91.63;99450.78;5071901;28;20051;-58
2021/08/06 00:54:12;;;;;;;3.65;2.70;;;;;;;12.30;91.69;99439.16;5072649;28;20053;-54
2021/08/06 00:56:39;;;;;;;4.68;2.60;;;;;;;12.32;91.68;99447.94;5068588;28;20041;-57
2021/08/06 00:59:05;;;;;;;4.00;3.50;;;;;;;12.33;91.72;99446.91;5071207;28;20071;-56
2021/08/06 01:01:36;;;;;;;3.78;2.63;;;;;;;12.28;91.33;99447.44;5070404;28;20044;-57
2021/08/06 01:04:08;;;;;;;4.05;3.08;;;;;;;12.24;91.68;99456.03;5071308;28;20102;-57
2021/08/06 01:06:42;;;;;;;3.70;3.20;;;;;;;12.26;91.37;99446.75;5071176;28;20072;-54
2021/08/06 01:09:17;;;;;;;4.68;3.75;;;;;;;12.26;91.83;99444.06;5072098;28;20072;-57
2021/08/06 01:11:48;;;;;;;5.15;4.10;;;;;;;12.23;92.07;99440.91;5070371;28;20044;-61
2021/08/06 01:14:17;;;;;;;4.95;3.78;;;;;;;12.27;91.92;99439.53;5070444;28;20461;-61
2021/08/06 01:16:48;;;;;;;5.35;3.90;;;;;;;12.32;92.04;99445.25;5070421;28;20098;-55
2021/08/06 01:19:23;;;;;;;5.68;4.40;;;;;;;12.29;92.34;99441.03;5072549;28;20049;-56
2021/08/06 01:21:56;;;;;;;6.00;4.68;;;;;;;12.31;92.37;99440.84;5071265;28;20057;-56
2021/08/06 01:24:24;;;;;;;5.65;4.20;;;;;;;12.35;92.68;99439.50;5063829;28;20048;-55
2021/08/06 01:26:54;;;;;;;5.05;4.45;;;;;;;12.34;92.95;99434.31;5070369;28;20045;-55
2021/08/06 01:29:20;;;;;;;5.22;4.25;;;;;;;12.32;92.80;99434.47;5071611;28;20044;-58
2021/08/06 01:31:47;;;;;;;7.78;4.97;;;;;;;12.22;92.69;99437.38;5069958;28;20076;-60
2021/08/06 01:34:13;;;;;;;5.55;4.75;;;;;;;12.19;92.76;99440.38;5071490;28;20044;-59
2021/08/06 01:36:39;;;;;;;7.00;5.00;;;;;;;12.12;92.83;99441.28;5070437;28;20040;-58
2021/08/06 01:39:06;;;;;;;6.07;4.28;;;;;;;12.03;92.53;99439.63;5070966;28;20080;-56
2021/08/06 01:41:38;;;;;;;5.78;3.83;;;;;;;12.05;92.42;99441.13;5071204;28;20048;-57
2021/08/06 01:44:11;;;;;;;4.93;3.80;;;;;;;11.96;93.05;99437.63;5070365;28;20048;-58
2021/08/06 01:46:43;;;;;;;4.28;3.67;;;;;;;11.93;93.13;99437.13;5069859;28;20047;-59
2021/08/06 01:49:14;;;;;;;5.07;4.05;;;;;;;11.88;93.79;99437.66;5063617;28;20375;-57
2021/08/06 01:51:43;;;;;;;5.13;3.95;;;;;;;11.87;94.38;99435.97;5069882;28;20068;-57
2021/08/06 01:54:12;;;;;;;4.93;4.18;;;;;;;11.92;94.06;99430.06;5068887;28;20061;-56
2021/08/06 01:56:40;;;;;;;6.30;4.65;;;;;;;11.96;94.22;99429.56;5070353;28;20044;-59
2021/08/06 01:59:09;;;;;;;6.35;4.28;;;;;;;12.04;94.28;99427.84;5069841;28;20090;-57
2021/08/06 02:01:35;;;;;;;5.38;3.78;;;;;;;12.13;93.81;99416.06;5070992;28;20071;-53
2021/08/06 02:04:02;;;;;;;5.05;3.67;;;;;;;12.16;93.70;99421.06;5071134;28;20045;-57
2021/08/06 02:06:28;;;;;;;4.15;3.25;;;;;;;12.21;93.50;99418.72;5069212;28;20125;-57
2021/08/06 02:08:55;;;;;;;4.25;3.40;;;;;;;12.25;93.19;99417.34;5070262;28;20129;-54
2021/08/06 02:11:21;;;;;;;6.20;4.97;;;;;;;12.29;92.84;99410.59;5069704;28;20044;-59
2021/08/06 02:13:50;;;;;;;4.50;4.03;;;;;;;12.25;92.78;99414.66;5070579;28;20482;-57
2021/08/06 02:16:19;;;;;;;4.68;3.45;;;;;;;12.22;92.60;99420.41;5069918;28;20048;-59
2021/08/06 02:18:49;;;;;;;5.25;3.53;;;;;;;12.19;92.96;99409.97;5069641;28;20044;-58
2021/08/06 02:21:20;;;;;;;3.72;3.22;;;;;;;12.18;92.72;99410.97;5064069;28;20040;-57
2021/08/06 02:23:50;;;;;;;5.32;3.80;;;;;;;12.22;92.50;99409.63;5068082;28;20468;-59
2021/08/06 02:26:19;;;;;;;7.32;4.78;;;;;;;12.25;92.60;99410.13;5069482;28;20040;-56
2021/08/06 02:28:49;;;;;;;5.47;4.18;;;;;;;12.26;92.92;99405.56;5064990;28;20495;-57
2021/08/06 02:31:18;;;;;;;7.35;5.70;;;;;;;12.29;93.22;99399.84;5067659;28;20113;-54
2021/08/06 02:33:45;;;;;;;6.47;5.50;;;;;;;12.38;93.45;99403.31;5064653;28;20344;-58
2021/08/06 02:36:11;;;;;;;8.55;6.30;;;;;;;12.37;93.62;99397.13;5068830;28;20486;-56
2021/08/06 02:38:38;;;;;;;7.72;4.78;;;;;;;12.39;93.56;99399.63;5069988;28;20101;-58
2021/08/06 02:41:05;;;;;;;4.95;4.15;;;;;;;12.41;93.34;99397.59;5069211;28;20501;-58
2021/08/06 02:43:31;;;;;;;6.93;5.40;;;;;;;12.41;93.80;99397.59;5063431;28;20134;-60
2021/08/06 02:45:58;;;;;;;7.85;6.07;;;;;;;12.49;93.34;99395.69;5068927;28;20057;-59
2021/08/06 02:48:25;;;;;;;8.07;5.55;;;;;;;12.43;92.99;99399.09;5068956;28;20064;-57
2021/08/06 02:50:52;;;;;;;6.22;5.20;;;;;;;12.35;93.06;99399.16;5067561;28;20048;-61
2021/08/06 02:53:19;;;;;;;5.88;4.65;;;;;;;12.28;93.21;99398.16;5069773;28;20410;-55
2021/08/06 02:55:45;;;;;;;6.85;4.53;;;;;;;12.25;93.50;99403.91;5068879;28;20090;-57
2021/08/06 02:58:12;;;;;;;6.15;4.60;;;;;;;12.25;93.66;99403.91;5065598;28;20086;-53
2021/08/06 03:00:38;;;;;;;9.85;4.85;;;;;;;12.27;93.41;99396.47;5069370;28;20700;-55
2021/08/06 03:03:04;;;;;;;6.22;4.68;;;;;;;12.30;93.52;99390.75;5069934;28;20052;-53
2021/08/06 03:05:32;;;;;;;6.25;5.47;;;;;;;12.31;93.56;99392.41;5060620;28;21052;-57
2021/08/06 03:07:58;;;;;;;5.95;5.22;;;;;;;12.34;93.70;99386.72;5067710;28;20099;-58
2021/08/06 03:10:25;;;;;;;9.38;5.13;;;;;;;12.35;93.11;99387.53;5069590;28;20101;-57
2021/08/06 03:12:51;;;;;;;8.95;7.78;;;;;;;12.37;93.70;99380.97;5068891;28;20059;-59
2021/08/06 03:15:19;;;;;;;9.05;7.28;;;;;;;12.37;93.70;99386.34;5069714;28;20126;-58
2021/08/06 03:17:46;;;;;;;7.35;5.72;;;;;;;12.42;93.77;99389.34;5067723;28;20040;-59
2021/08/06 03:20:14;;;;;;;7.72;6.63;;;;;;;12.41;92.92;99390.34;5070605;28;20075;-59
2021/08/06 03:22:43;;;;;;;6.28;5.05;;;;;;;12.39;92.48;99395.06;5069504;28;20498;-54
2021/08/06 03:25:11;;;;;;;4.57;4.10;;;;;;;12.36;92.40;99389.22;5069512;28;20082;-60
2021/08/06 03:27:37;;;;;;;5.85;4.60;;;;;;;12.28;92.89;99388.22;5069397;28;20105;-60
2021/08/06 03:30:05;;;;;;;7.10;5.18;;;;;;;12.23;93.08;99387.94;5066991;28;20052;-58
2021/08/06 03:32:32;;;;;;;7.15;4.95;;;;;;;12.24;93.05;99378.00;5066425;28;20053;-55
2021/08/06 03:34:58;;;;;;;6.40;4.55;;;;;;;12.28;93.14;99377.47;5062830;28;20049;-60
2021/08/06 03:37:24;;;;;;;6.35;5.28;;;;;;;12.34;92.70;99385.88;5066472;28;20091;-56
2021/08/06 03:39:52;;;;;;;7.38;5.30;;;;;;;12.38;92.34;99387.19;5068217;28;20049;-57
2021/08/06 03:42:18;;;;;;;5.72;4.55;;;;;;;12.36;92.45;99391.91;5069111;28;20053;-57
2021/08/06 03:44:45;;;;;;;6.70;4.70;;;;;;;12.33;92.56;99384.19;5068928;28;20044;-59
2021/08/06 03:47:11;;;;;;;5.13;3.90;;;;;;;12.32;92.52;99388.75;5068641;28;20090;-58
2021/08/06 03:49:37;;;;;;;6.25;4.85;;;;;;;12.32;92.69;99379.84;5067669;28;20052;-60
2021/08/06 03:52:04;;;;;;;6.25;5.32;;;;;;;12.35;92.91;99374.94;5066775;28;23530;-59
2021/08/06 03:54:31;;;;;;;6.80;4.93;;;;;;;12.38;92.67;99377.25;5065153;28;20494;-58
2021/08/06 03:56:58;;;;;;;6.50;4.43;;;;;;;12.43;92.26;99379.41;5067926;28;20503;-57
2021/08/06 03:59:25;;;;;;;5.70;4.75;;;;;;;12.43;92.38;99379.41;5068823;28;20087;-59
2021/08/06 04:01:51;;;;;;;6.88;5.10;;;;;;;12.40;92.20;99377.06;5067622;28;20041;-57
2021/08/06 04:04:17;;;;;;;5.65;4.68;;;;;;;12.41;92.86;99371.50;5061204;28;20097;-55
2021/08/06 04:06:44;;;;;;;6.47;4.90;;;;;;;12.45;92.24;99366.63;5068858;28;20067;-58
2021/08/06 04:09:10;;;;;;;5.45;4.70;;;;;;;12.45;92.64;99370.16;5068131;28;20052;-56
2021/08/06 04:11:36;;;;;;;6.45;4.82;;;;;;;12.45;92.53;99372.03;5069563;28;20103;-56
2021/08/06 04:14:04;;;;;;;6.13;5.43;;;;;;;12.43;92.64;99372.19;5067334;28;20560;-61
2021/08/06 04:16:31;;;;;;;8.27;5.82;;;;;;;12.44;92.65;99378.41;5067364;28;20052;-58
2021/08/06 04:18:57;;;;;;;5.22;4.40;;;;;;;12.46;92.39;99374.53;5066324;28;20060;-59
2021/08/06 04:21:23;;;;;;;6.43;5.13;;;;;;;12.51;92.41;99376.69;5068424;28;20052;-57
2021/08/06 04:23:49;;;;;;;7.88;5.03;;;;;;;12.53;92.25;99378.16;5068720;28;20064;-57
2021/08/06 04:26:16;;;;;;;5.18;4.05;;;;;;;12.63;92.17;99379.81;5069440;28;20041;-59
2021/08/06 04:28:42;;;;;;;8.30;7.05;;;;;;;12.63;91.92;99379.81;5067943;28;20056;-57
2021/08/06 04:31:10;;;;;;;8.13;6.60;;;;;;;12.62;92.30;99378.13;5069577;28;20040;-57
2021/08/06 04:33:36;;;;;;;8.20;6.82;;;;;;;12.57;92.22;99374.13;5067171;28;20076;-58
2021/08/06 04:36:03;;;;;;;9.40;6.05;;;;;;;12.54;92.27;99371.78;5068400;28;20044;-57
2021/08/06 04:38:29;;;;;;;8.68;7.30;;;;;;;12.53;92.99;99367.41;5069331;28;20505;-59
2021/08/06 04:40:56;;;;;;;9.32;7.50;;;;;;;12.55;93.10;99364.56;5069395;28;20498;-62
2021/08/06 04:43:23;;;;;;;8.27;6.78;;;;;;;12.59;93.45;99364.00;5067512;28;20056;-54
2021/08/06 04:45:50;;;;;;;8.45;6.57;;;;;;;12.64;93.14;99363.47;5068682;28;20045;-57
2021/08/06 04:48:19;;;;;;;12.02;6.45;;;;;;;12.68;93.30;99362.13;5069830;28;20048;-56
2021/08/06 04:50:46;;;;;;;7.13;5.95;;;;;;;12.75;92.77;99362.22;5071615;28;20057;-57
2021/08/06 04:53:12;;;;;;;8.02;6.07;;;;;;;12.78;92.61;99359.16;5072889;28;20049;-60
2021/08/06 04:55:39;;;;;;;7.55;6.68;;;;;;;12.83;92.49;99363.00;5071768;28;20510;-59
2021/08/06 04:58:05;;;;;;;8.48;7.45;;;;;;;12.91;92.42;99362.13;5080953;22;20044;-79
2021/08/06 05:00:32;;;;;;;7.57;6.60;;;;;;;13.01;92.20;99368.06;5072928;28;20052;-77
2021/08/06 05:02:59;;;;;;;10.00;8.30;;;;;;;13.11;91.48;99368.66;5078024;22;20163;-77
2021/08/06 05:05:27;;;;;;;11.52;8.70;;;;;;;13.19;91.55;99364.25;5055682;28;20079;-79
2021/08/06 05:07:54;;;;;;;9.00;8.00;;;;;;;13.24;91.27;99362.69;5075252;28;20128;-77
2021/08/06 05:10:22;;;;;;;10.40;6.82;;;;;;;13.30;91.19;99363.81;5064716;28;20063;-78
2021/08/06 05:12:49;;;;;;;7.22;5.95;;;;;;;13.39;91.22;99365.44;5070904;28;20053;-77
2021/08/06 05:15:16;;;;;;;8.65;7.50;;;;;;;13.48;91.09;99358.91;5071249;28;20048;-77
2021/08/06 05:17:43;;;;;;;8.70;7.63;;;;;;;13.61;90.60;99358.25;5069778;28;20044;-77
2021/08/06 05:20:11;;;;;;;10.00;8.35;;;;;;;13.73;89.78;99354.94;5060457;28;20041;-79
2021/08/06 05:22:39;;;;;;;9.68;8.27;;;;;;;13.77;89.12;99352.72;5061714;28;20049;-77
2021/08/06 05:25:06;;;;;;;10.18;8.05;;;;;;;13.83;89.22;99356.50;5068269;28;20110;-76
2021/08/06 05:27:32;;;;;;;15.30;9.40;;;;;;;13.87;89.81;99358.66;5068223;28;20560;-76
2021/08/06 05:29:58;;;;;;;9.90;8.80;;;;;;;13.85;89.83;99358.03;5068474;28;20452;-75
2021/08/06 05:32:25;;;;;;;10.75;7.18;;;;;;;13.84;90.08;99358.19;5068759;28;20468;-75
2021/08/06 05:34:51;;;;;;;8.20;7.35;;;;;;;13.80;89.96;99346.94;5068208;28;20444;-76
2021/08/06 05:37:17;;;;;;;11.80;9.52;;;;;;;13.75;90.49;99346.66;5067356;28;20494;-76
2021/08/06 05:39:45;;;;;;;13.32;10.52;;;;;;;13.71;90.93;99346.19;5068341;28;20070;-79
2021/08/06 05:42:12;;;;;;;8.23;6.68;;;;;;;13.73;90.85;99344.16;5068583;28;20045;-76
2021/08/06 05:44:38;;;;;;;11.18;9.20;;;;;;;13.79;91.25;99355.22;5069197;28;20048;-78
2021/08/06 05:47:05;;;;;;;13.02;10.95;;;;;;;13.86;91.19;99351.59;5069214;28;20044;-78
2021/08/06 05:49:31;;;;;;;17.20;11.57;;;;;;;13.99;90.92;99356.34;5070223;28;20040;-78
2021/08/06 05:51:57;;;;;;;13.50;11.32;;;;;;;14.19;90.52;99351.16;5069073;28;20052;-78
2021/08/06 05:54:24;;;;;;;12.13;10.13;;;;;;;14.41;89.87;99349.34;5071543;28;20044;-77
2021/08/06 05:56:52;;;;;;;13.63;10.10;;;;;;;14.68;89.08;99350.50;5070921;28;20090;-79
2021/08/06 05:59:18;;;;;;;10.90;9.25;;;;;;;14.99;88.11;99342.91;5067718;28;20045;-77
2021/08/06 06:01:44;;;;;;;16.98;11.00;;;;;;;15.40;86.19;99345.75;5065557;28;20098;-77
2021/08/06 06:04:11;;;;;;;14.15;10.00;;;;;;;15.81;84.53;99344.16;5046417;28;20052;-77
2021/08/06 06:06:37;;;;;;;14.45;10.60;;;;;;;16.14;83.52;99347.03;5064237;28;20041;-77
2021/08/06 06:09:03;;;;;;;15.18;10.50;;;;;;;16.27;83.94;99352.50;5110049;22;20052;-60
2021/08/06 06:11:30;;;;;;;10.00;8.90;;;;;;;16.47;83.75;99361.56;5071583;28;20052;-62
2021/08/06 06:14:00;;;;;;;12.05;9.75;;;;;;;16.50;82.84;99358.44;5078384;28;20048;-62
2021/08/06 06:16:26;;;;;;;11.40;9.30;;;;;;;16.58;82.74;99352.84;5090469;28;20068;-62
2021/08/06 06:18:53;;;;;;;7.90;6.90;;;;;;;16.76;82.14;99349.56;5089349;28;20575;-63
2021/08/06 06:21:19;;;;;;;11.18;9.20;;;;;;;16.67;82.77;99351.59;5086475;28;20499;-62
2021/08/06 06:23:45;;;;;;;10.55;9.50;;;;;;;16.92;82.25;99351.03;5090504;28;20093;-62
2021/08/06 06:26:12;;;;;;;7.78;6.65;;;;;;;17.12;81.96;99346.47;5075373;28;20097;-61
2021/08/06 06:28:38;;;;;;;10.73;8.98;;;;;;;17.20;81.16;99348.97;5090500;28;20044;-62
2021/08/06 06:31:06;;;;;;;9.85;8.38;;;;;;;17.13;81.00;99339.16;5083698;28;20105;-63
2021/08/06 06:33:32;;;;;;;10.90;8.38;;;;;;;17.27;80.70;99342.69;5084152;28;20117;-61
2021/08/06 06:35:59;;;;;;;10.48;9.18;;;;;;;17.25;81.37;99343.75;5077206;28;20110;-62
2021/08/06 06:38:25;;;;;;;9.63;8.63;;;;;;;17.32;81.24;99340.22;5081208;28;20422;-61
2021/08/06 06:40:52;;;;;;;10.25;8.45;;;;;;;17.43;79.74;99340.41;5070924;28;20076;-62
2021/08/06 06:43:18;;;;;;;13.05;9.32;;;;;;;17.35;80.84;99337.91;5089869;28;20043;-61
2021/08/06 06:45:44;;;;;;;12.10;9.10;;;;;;;17.28;80.05;99338.94;5086423;28;20067;-61
2021/08/06 06:48:12;;;;;;;11.23;9.32;;;;;;;17.02;81.22;99339.78;5089967;28;20582;-62
2021/08/06 06:50:39;;;;;;;11.50;8.20;;;;;;;17.02;81.89;99343.31;5086798;28;20112;-63
2021/08/06 06:53:06;;;;;;;13.45;10.60;;;;;;;16.81;82.84;99340.78;5087966;28;20060;-62
2021/08/06 06:55:32;;;;;;;10.85;9.63;;;;;;;16.77;83.39;99342.25;5089695;28;20066;-61
2021/08/06 06:57:58;;;;;;;10.07;8.98;;;;;;;16.65;83.88;99342.81;5078028;28;20095;-63
2021/08/06 07:00:28;;;;;;;12.82;9.82;;;;;;;16.57;84.13;99343.00;5080555;28;20131;-63
2021/08/06 07:02:54;;;;;;;13.05;10.68;;;;;;;16.51;84.49;99343.84;5083278;28;20068;-61
2021/08/06 07:05:22;;;;;;;14.68;11.55;;;;;;;16.39;84.98;99342.75;5077281;28;20106;-63
2021/08/06 07:07:48;;;;;;;13.30;10.85;;;;;;;16.53;85.17;99340.91;5080633;28;20098;-61
2021/08/06 07:10:15;;;;;;;12.48;10.38;;;;;;;16.95;83.78;99328.94;5085664;28;20056;-63
2021/08/06 07:12:43;;;;;;;12.75;10.15;;;;;;;17.43;81.84;99334.16;5068635;28;20066;-63
2021/08/06 07:15:11;;;;;;;8.32;7.25;;;;;;;17.91;80.06;99344.75;5088129;28;20486;-60
2021/08/06 07:17:38;;;;;;;11.00;9.23;;;;;;;18.36;77.38;99335.59;5079556;28;20040;-60
2021/08/06 07:20:07;;;;;;;10.27;7.97;;;;;;;18.88;74.91;99336.34;5087845;28;20044;-61
2021/08/06 07:22:35;;;;;;;12.70;9.13;;;;;;;19.36;73.26;99338.47;5089528;28;20097;-60
2021/08/06 07:25:02;;;;;;;12.20;9.07;;;;;;;19.19;74.04;99332.78;5088307;28;20114;-60
2021/08/06 07:27:29;;;;;;;11.45;8.30;;;;;;;19.48;72.84;99335.84;5063693;28;20044;-61
2021/08/06 07:29:55;;;;;;;10.10;7.72;;;;;;;19.75;71.72;99341.88;5061886;28;20145;-62
2021/08/06 07:32:21;;;;;;;10.40;9.30;;;;;;;19.55;72.24;99334.78;5070489;28;20519;-61
2021/08/06 07:34:48;;;;;;;9.38;7.38;;;;;;;19.76;71.87;99338.09;5065146;28;20510;-61
2021/08/06 07:37:14;;;;;;;9.40;7.82;;;;;;;19.78;71.36;99341.47;5074149;28;20045;-64
2021/08/06 07:39:42;;;;;;;8.73;7.32;;;;;;;19.62;69.70;99345.56;5067485;28;20403;-61
2021/08/06 07:42:08;;;;;;;9.07;7.55;;;;;;;19.69;70.73;99342.81;5073630;28;20047;-63
2021/08/06 07:44:35;;;;;;;6.55;5.78;;;;;;;19.87;69.29;99345.53;5080148;28;20112;-62
2021/08/06 07:47:01;;;;;;;9.43;6.63;;;;;;;19.93;69.79;99344.63;5072171;28;20102;-62
2021/08/06 07:49:27;;;;;;;6.55;5.18;;;;;;;20.12;70.18;99343.56;5067398;28;20473;-62
2021/08/06 07:51:54;;;;;;;7.65;6.03;;;;;;;20.00;68.72;99339.94;5075679;28;20047;-61
2021/08/06 07:54:20;;;;;;;6.45;4.90;;;;;;;19.97;67.65;99345.00;5068938;28;20494;-63
2021/08/06 07:56:48;;;;;;;5.18;4.68;;;;;;;19.94;67.51;99340.84;5068541;28;20045;-63
2021/08/06 07:59:16;;;;;;;4.65;3.88;;;;;;;20.22;68.23;99331.31;5068041;28;20048;-62
2021/08/06 08:01:43;;;;;;;9.50;6.10;;;;;;;19.63;69.67;99343.69;5067515;28;20044;-61
2021/08/06 08:04:09;;;;;;;6.78;5.57;;;;;;;19.96;66.91;99338.72;5073379;28;20083;-62
2021/08/06 08:06:35;;;;;;;6.82;5.97;;;;;;;20.02;66.97;99340.56;5067993;28;20528;-63
2021/08/06 08:09:02;;;;;;;6.57;5.32;;;;;;;20.08;68.83;99345.09;5068003;28;20044;-62
2021/08/06 08:11:28;;;;;;;6.70;5.50;;;;;;;20.14;66.84;99344.19;5069240;28;20048;-62
2021/08/06 08:13:56;;;;;;;6.65;5.40;;;;;;;20.05;65.41;99342.81;5078358;28;20081;-64
2021/08/06 08:16:22;;;;;;;5.20;3.95;;;;;;;20.36;66.53;99330.94;5077226;28;20153;-61
2021/08/06 08:18:50;;;;;;;5.43;4.57;;;;;;;20.41;66.12;99330.22;5086035;28;20118;-62
2021/08/06 08:21:16;;;;;;;5.40;3.83;;;;;;;20.52;65.10;99337.66;5070868;28;20068;-61
2021/08/06 08:23:43;;;;;;;6.93;4.35;;;;;;;20.27;65.65;99340.47;5069281;28;20113;-62
2021/08/06 08:26:09;;;;;;;6.40;4.30;;;;;;;20.38;64.57;99336.13;5067850;28;20563;-61
2021/08/06 08:28:35;;;;;;;5.65;4.05;;;;;;;20.42;63.88;99331.91;5086762;28;20040;-61
2021/08/06 08:31:03;;;;;;;5.07;3.55;;;;;;;20.76;64.40;99341.28;5074529;28;20087;-64
2021/08/06 08:33:29;;;;;;;4.32;3.67;;;;;;;20.69;62.48;99335.94;5073229;28;20044;-62
2021/08/06 08:35:56;;;;;;;6.47;3.92;;;;;;;20.80;62.22;99345.22;5075396;28;20450;-64
2021/08/06 08:38:22;;;;;;;4.75;4.00;;;;;;;20.83;62.66;99343.91;5070347;28;20483;-62
2021/08/06 08:40:49;;;;;;;4.97;4.35;;;;;;;21.11;61.93;99341.38;5071988;28;20288;-63
2021/08/06 08:43:15;;;;;;;5.03;3.45;;;;;;;21.35;63.12;99336.00;5075418;28;20048;-63
2021/08/06 08:45:41;;;;;;;7.95;4.15;;;;;;;21.50;62.08;99339.09;5073971;28;20044;-62
2021/08/06 08:48:11;;;;;;;5.85;3.70;;;;;;;21.69;59.95;99343.38;5070365;28;20052;-62
2021/08/06 08:50:38;;;;;;;6.97;3.80;;;;;;;21.73;60.20;99338.25;5068614;28;20063;-61
2021/08/06 08:53:06;;;;;;;7.47;4.63;;;;;;;21.34;59.14;99331.59;5072196;28;20053;-63
2021/08/06 08:55:33;;;;;;;6.80;4.60;;;;;;;21.37;60.60;99331.13;5072171;28;20105;-62
2021/08/06 08:57:59;;;;;;;8.48;3.85;;;;;;;21.51;59.91;99332.56;5071415;28;20502;-64
2021/08/06 09:00:26;;;;;;;4.80;3.33;;;;;;;21.69;57.24;99337.06;5072112;28;20044;-65
2021/08/06 09:02:52;;;;;;;3.53;2.80;;;;;;;21.80;57.81;99334.34;5074165;28;20522;-63
2021/08/06 09:05:24;;;;;;;4.10;3.38;;;;;;;21.41;57.02;99330.41;5072179;28;20391;-62
2021/08/06 09:07:51;;;;;;;4.57;2.60;;;;;;;21.30;56.59;99331.22;5075548;28;20457;-60
2021/08/06 09:10:20;;;;;;;4.03;3.25;;;;;;;21.43;57.26;99332.91;5079167;28;20056;-64
2021/08/06 09:12:49;;;;;;;6.68;2.97;;;;;;;21.65;57.43;99325.78;5073893;28;20052;-63
2021/08/06 09:15:16;;;;;;;3.03;2.10;;;;;;;21.77;55.25;99318.41;5070616;28;20110;-63
2021/08/06 09:17:43;;;;;;;4.65;3.00;;;;;;;21.73;54.75;99322.69;5074550;28;20040;-62
2021/08/06 09:20:10;;;;;;;3.92;2.97;;;;;;;21.61;54.81;99321.88;5077035;28;20261;-62
2021/08/06 09:22:41;;;;;;;2.88;2.35;;;;;;;21.77;53.73;99317.56;5074444;28;20048;-60
2021/08/06 09:25:11;;;;;;;3.50;2.40;;;;;;;21.72;55.08;99326.50;5074191;28;20041;-62
2021/08/06 09:27:39;;;;;;;3.28;2.47;;;;;;;21.97;54.50;99314.47;5075787;28;20168;-61
2021/08/06 09:30:08;;;;;;;2.70;2.00;;;;;;;22.12;53.67;99321.09;5072270;28;20468;-63
2021/08/06 09:32:49;;;;;;;2.72;2.08;;;;;;;22.01;53.89;99324.66;5072357;28;20044;-61
2021/08/06 09:35:17;;;;;;;4.05;2.45;;;;;;;21.96;55.06;99326.47;5074920;28;20048;-62
2021/08/06 09:37:45;;;;;;;3.65;2.72;;;;;;;22.19;55.28;99318.25;5072809;28;20040;-63
2021/08/06 09:40:14;;;;;;;3.80;2.63;;;;;;;22.47;54.88;99320.16;5069130;28;20048;-61
2021/08/06 09:42:51;;;;;;;3.03;2.50;;;;;;;22.50;53.30;99322.44;5077071;28;20133;-63
2021/08/06 09:45:21;;;;;;;5.03;2.65;;;;;;;22.34;53.44;99318.56;5074348;28;20037;-63
2021/08/06 09:47:55;;;;;;;4.18;2.90;;;;;;;22.04;55.14;99323.38;5075430;28;20469;-61
2021/08/06 09:50:23;;;;;;;3.67;2.83;;;;;;;22.48;55.84;99314.44;5068870;28;20044;-61
2021/08/06 09:52:52;;;;;;;3.85;2.58;;;;;;;22.73;54.32;99324.19;5084043;28;20079;-62
2021/08/06 09:55:21;;;;;;;3.65;2.45;;;;;;;22.55;52.47;99314.31;5063546;28;20048;-61
2021/08/06 09:57:48;;;;;;;3.90;2.75;;;;;;;22.30;52.63;99301.00;5078463;28;20089;-61
2021/08/06 10:00:15;;;;;;;3.05;2.65;;;;;;;22.26;52.45;99312.63;5070721;28;20048;-62
2021/08/06 10:02:43;;;;;;;2.78;2.10;;;;;;;22.42;53.23;99309.97;5075655;28;20106;-62
2021/08/06 10:05:11;;;;;;;4.30;2.40;;;;;;;22.32;53.08;99307.03;5070646;28;20433;-63
2021/08/06 10:07:40;;;;;;;4.00;2.45;;;;;;;22.65;53.81;99302.75;5067622;28;20045;-60
2021/08/06 10:10:11;;;;;;;4.15;2.90;;;;;;;22.81;51.65;99296.47;5083018;28;20063;-61
2021/08/06 10:12:38;;;;;;;3.03;2.38;;;;;;;22.76;54.08;99304.59;5071576;28;20460;-62
2021/08/06 10:15:06;;;;;;;3.67;3.10;;;;;;;22.67;53.53;99285.00;5071311;28;20044;-63
2021/08/06 10:17:32;;;;;;;3.80;2.90;;;;;;;22.82;54.49;99281.72;5069501;28;20411;-62
2021/08/06 10:19:59;;;;;;;3.47;2.83;;;;;;;22.74;52.76;99285.69;5072738;28;20056;-61
2021/08/06 10:22:25;;;;;;;4.68;2.95;;;;;;;23.20;53.35;99274.69;5068938;28;20064;-62
2021/08/06 10:24:54;;;;;;;3.28;2.80;;;;;;;23.16;51.23;99281.75;5075045;28;20125;-64
2021/08/06 10:27:24;;;;;;;4.00;3.10;;;;;;;23.06;52.95;99279.69;5075800;28;20091;-61
2021/08/06 10:29:56;;;;;;;6.40;3.15;;;;;;;23.33;52.28;99282.59;5068807;28;20422;-62
2021/08/06 10:32:22;;;;;;;3.75;2.95;;;;;;;23.50;51.60;99277.91;5075774;28;20144;-62
2021/08/06 10:35:16;;;;;;;3.50;3.17;;;;;;;23.36;52.06;99282.09;5069847;28;20512;-62
2021/08/06 10:37:55;;;;;;;4.30;3.28;;;;;;;23.47;52.51;99278.41;5066993;28;20040;-62
2021/08/06 10:41:01;;;;;;;3.75;3.08;;;;;;;23.52;50.79;99278.47;5067032;28;20078;-61
2021/08/06 10:43:47;;;;;;;4.90;2.97;;;;;;;24.20;51.83;99271.72;5070384;28;20045;-62
2021/08/06 10:46:15;;;;;;;4.13;2.90;;;;;;;24.00;48.83;99268.75;5066052;28;20059;-62
2021/08/06 10:48:43;;;;;;;3.20;2.65;;;;;;;24.01;48.64;99273.13;5075557;28;20064;-61
2021/08/06 10:51:21;;;;;;;4.55;3.20;;;;;;;23.89;49.85;99267.78;5059680;28;20468;-61
2021/08/06 10:53:49;;;;;;;3.28;2.90;;;;;;;24.00;48.68;99270.66;5074562;28;20589;-63
2021/08/06 10:56:28;;;;;;;3.20;2.85;;;;;;;23.69;48.92;99264.78;5077848;28;20049;-61
2021/08/06 10:58:59;;;;;;;3.08;2.50;;;;;;;23.30;49.93;99267.47;5077758;28;20044;-64
2021/08/06 11:01:39;;;;;;;3.83;2.78;;;;;;;23.30;50.54;99261.16;5070911;28;20429;-62
2021/08/06 11:04:27;;;;;;;3.20;2.70;;;;;;;23.63;52.09;99272.09;5093038;22;20097;-63
2021/08/06 11:06:55;;;;;;;4.68;2.88;;;;;;;24.19;48.07;99266.50;5077773;28;20062;-64
2021/08/06 11:09:39;;;;;;;3.28;2.58;;;;;;;24.28;48.20;99253.19;5069423;28;20047;-62
2021/08/06 11:12:07;;;;;;;2.80;2.08;;;;;;;24.01;47.30;99251.22;5071467;28;20072;-61
2021/08/06 11:15:01;;;;;;;3.20;2.17;;;;;;;23.43;47.29;99249.88;5073990;28;20044;-62
2021/08/06 11:17:41;;;;;;;2.70;1.95;;;;;;;23.76;48.13;99245.41;5074581;28;20599;-62
2021/08/06 11:20:11;;;;;;;3.53;2.00;;;;;;;24.34;47.92;99241.19;5068453;28;20044;-61
2021/08/06 11:22:39;;;;;;;3.35;2.42;;;;;;;24.90;49.77;99236.25;5068456;28;20048;-63
2021/08/06 11:25:12;;;;;;;3.28;2.70;;;;;;;24.39;47.21;99241.25;5081193;28;20040;-63
2021/08/06 11:27:41;;;;;;;3.60;2.67;;;;;;;24.61;47.00;99241.19;5069198;28;20080;-61
2021/08/06 11:30:11;;;;;;;3.50;2.40;;;;;;;24.85;46.14;99241.69;5077528;28;20662;-59
2021/08/06 11:32:53;;;;;;;2.85;2.17;;;;;;;24.91;47.13;99243.38;5071883;28;20216;-63
2021/08/06 11:35:22;;;;;;;3.53;2.47;;;;;;;25.16;45.42;99234.56;5082052;28;20059;-63